Time;durP1;ratioP1;P1;durP2;ratioP2;P2;SDS_P1;SDS_P2;PMS_P1;PMS_P2;Temp;Humidity;BMP_temperature;BMP_pressure;BME280_temperature;BME280_humidity;BME280_pressure;Samples;Min_cycle;Max_cycle;Signal;HPM_P1;HPM_P2
2023/06/17 00:00:32;;;;;;;0.40;0.40;;;;;;;17.71;48.34;96822.25;29395;328;63004;-52
2023/06/17 00:01:07;;;;;;;0.50;0.50;;;;;;;17.70;48.50;96815.94;29395;237;63008;-51
2023/06/17 00:01:40;;;;;;;0.40;0.40;;;;;;;17.70;48.65;96818.69;29394;196;64008;-58
2023/06/17 00:02:13;;;;;;;0.40;0.40;;;;;;;17.70;48.46;96815.16;29395;322;63009;-52
2023/06/17 00:02:44;;;;;;;0.30;0.30;;;;;;;17.69;48.53;96819.84;29395;204;63005;-51
2023/06/17 00:03:16;;;;;;;0.40;0.40;;;;;;;17.69;48.35;96819.03;29395;365;63009;-53
2023/06/17 00:03:47;;;;;;;0.40;0.40;;;;;;;17.68;48.44;96811.94;29395;197;63005;-52
2023/06/17 00:04:21;;;;;;;0.40;0.40;;;;;;;17.68;48.81;96818.22;29395;289;63009;-52
2023/06/17 00:04:52;;;;;;;0.40;0.40;;;;;;;17.67;48.54;96822.13;29395;393;63005;-59
2023/06/17 00:05:24;;;;;;;0.30;0.30;;;;;;;17.67;48.65;96821.34;29395;226;63009;-52
2023/06/17 00:05:56;;;;;;;0.40;0.40;;;;;;;17.67;48.63;96816.63;29395;286;63016;-59
2023/06/17 00:06:27;;;;;;;0.40;0.40;;;;;;;17.67;48.76;96813.09;29395;200;63009;-58
2023/06/17 00:07:01;;;;;;;0.40;0.40;;;;;;;17.67;48.74;96821.34;29394;345;64009;-51
2023/06/17 00:07:32;;;;;;;0.40;0.40;;;;;;;17.65;48.96;96815.37;29395;280;63009;-57
2023/06/17 00:08:04;;;;;;;0.40;0.40;;;;;;;17.65;48.60;96818.94;29395;245;63004;-51
2023/06/17 00:08:37;;;;;;;0.40;0.40;;;;;;;17.64;48.90;96817.31;29395;276;63008;-52
2023/06/17 00:09:08;;;;;;;0.40;0.40;;;;;;;17.64;48.84;96822.00;29394;202;64008;-57
2023/06/17 00:09:44;;;;;;;0.37;0.37;;;;;;;17.63;49.06;96814.91;29395;223;63005;-51
2023/06/17 00:10:15;;;;;;;0.40;0.40;;;;;;;17.63;49.20;96820.38;29395;206;63005;-52
2023/06/17 00:10:46;;;;;;;0.30;0.30;;;;;;;17.62;49.30;96813.28;29394;315;64014;-51
2023/06/17 00:11:17;;;;;;;0.40;0.40;;;;;;;17.62;49.15;96821.53;29395;233;63005;-51
2023/06/17 00:11:49;;;;;;;0.40;0.40;;;;;;;17.61;49.03;96812.50;29395;275;63009;-51
2023/06/17 00:12:21;;;;;;;0.40;0.40;;;;;;;17.61;49.47;96815.22;29395;305;63005;-51
2023/06/17 00:12:54;;;;;;;0.40;0.40;;;;;;;17.63;49.29;96820.38;29395;196;63009;-59
2023/06/17 00:13:25;;;;;;;0.40;0.40;;;;;;;17.61;49.39;96819.91;29395;240;63005;-52
2023/06/17 00:13:57;;;;;;;0.40;0.40;;;;;;;17.60;49.15;96810.88;29394;229;64013;-53
2023/06/17 00:14:32;;;;;;;0.40;0.40;;;;;;;17.61;49.25;96817.19;29395;214;63004;-51
2023/06/17 00:15:07;;;;;;;0.40;0.40;;;;;;;17.61;49.21;96811.69;29395;196;63016;-52
2023/06/17 00:15:38;;;;;;;0.40;0.40;;;;;;;17.60;48.80;96816.38;29395;300;63004;-58
2023/06/17 00:16:12;;;;;;;0.40;0.40;;;;;;;17.60;48.92;96810.88;29395;201;63008;-52
2023/06/17 00:16:43;;;;;;;0.40;0.40;;;;;;;17.60;48.85;96815.56;29395;196;63004;-51
2023/06/17 00:17:16;;;;;;;0.40;0.40;;;;;;;17.59;48.77;96813.97;29394;203;64014;-52
2023/06/17 00:17:50;;;;;;;0.40;0.40;;;;;;;17.59;48.79;96805.75;29395;344;63005;-59
2023/06/17 00:18:22;;;;;;;0.40;0.40;;;;;;;17.59;48.90;96809.28;29395;252;63005;-51
2023/06/17 00:18:53;;;;;;;0.30;0.30;;;;;;;17.59;48.55;96805.75;29394;335;64001;-51
2023/06/17 00:19:25;;;;;;;0.40;0.40;;;;;;;17.60;48.81;96807.34;29395;196;63015;-59
2023/06/17 00:20:07;;;;;;;0.40;0.40;;;;;;;17.60;48.74;96804.59;29395;333;63010;-60
2023/06/17 00:20:39;;;;;;;0.40;0.40;;;;;;;17.61;48.46;96811.69;29395;219;63009;-59
2023/06/17 00:21:10;;;;;;;0.30;0.30;;;;;;;17.60;48.64;96804.59;29394;202;64009;-51
2023/06/17 00:21:48;;;;;;;0.40;0.40;;;;;;;17.59;48.41;96803.78;29395;238;63009;-51
2023/06/17 00:22:19;;;;;;;0.30;0.30;;;;;;;17.59;48.52;96803.00;29395;290;63004;-51
2023/06/17 00:22:52;;;;;;;0.32;0.32;;;;;;;17.59;48.46;96805.75;29395;218;63008;-51
2023/06/17 00:23:27;;;;;;;0.40;0.40;;;;;;;17.58;48.52;96812.38;29395;223;63004;-59
2023/06/17 00:23:58;;;;;;;0.40;0.40;;;;;;;17.59;48.75;96803.78;29395;354;63009;-58
2023/06/17 00:24:30;;;;;;;0.30;0.30;;;;;;;17.58;48.76;96801.41;29395;203;63011;-51
2023/06/17 00:25:02;;;;;;;0.30;0.30;;;;;;;17.58;48.76;96798.66;29395;197;63009;-52
2023/06/17 00:25:34;;;;;;;0.30;0.30;;;;;;;17.57;48.56;96806.06;29395;318;63005;-52
2023/06/17 00:26:05;;;;;;;0.40;0.40;;;;;;;17.58;48.97;96806.87;29395;241;63009;-50
2023/06/17 00:26:37;;;;;;;0.40;0.40;;;;;;;17.58;48.82;96804.12;29394;224;64009;-51
2023/06/17 00:27:08;;;;;;;0.40;0.40;;;;;;;17.57;48.80;96805.28;29395;212;63009;-51
2023/06/17 00:27:40;;;;;;;0.40;0.40;;;;;;;17.57;48.71;96810.75;29395;209;63005;-51
2023/06/17 00:28:11;;;;;;;0.40;0.40;;;;;;;17.57;48.74;96805.28;29395;257;63009;-51
2023/06/17 00:28:43;;;;;;;0.40;0.40;;;;;;;17.56;48.76;96803.66;29395;242;63004;-50
2023/06/17 00:29:15;;;;;;;0.37;0.37;;;;;;;17.56;48.77;96809.16;29395;294;63009;-52
2023/06/17 00:29:46;;;;;;;0.40;0.40;;;;;;;17.55;48.81;96802.88;29395;218;63004;-58
2023/06/17 00:30:18;;;;;;;0.40;0.40;;;;;;;17.55;48.80;96802.88;29395;202;63004;-51
2023/06/17 00:30:50;;;;;;;0.40;0.40;;;;;;;17.54;48.79;96800.47;29394;202;64008;-57
2023/06/17 00:31:21;;;;;;;0.30;0.30;;;;;;;17.54;48.79;96805.94;29395;202;63009;-57
2023/06/17 00:31:52;;;;;;;0.30;0.30;;;;;;;17.52;48.98;96800.81;29395;258;63005;-51
2023/06/17 00:32:23;;;;;;;0.40;0.40;;;;;;;17.52;48.75;96802.75;29395;210;63009;-57
2023/06/17 00:32:55;;;;;;;0.40;0.40;;;;;;;17.50;49.02;96800.34;29395;257;63005;-52
2023/06/17 00:33:26;;;;;;;0.30;0.30;;;;;;;17.50;48.81;96796.78;29395;212;63020;-52
2023/06/17 00:33:58;;;;;;;0.30;0.30;;;;;;;17.50;48.87;96805.81;29394;253;64009;-52
2023/06/17 00:34:31;;;;;;;0.40;0.40;;;;;;;17.49;48.71;96792.44;29395;287;63009;-59
2023/06/17 00:35:06;;;;;;;0.40;0.40;;;;;;;17.49;48.82;96797.94;29395;256;63005;-52
2023/06/17 00:35:37;;;;;;;0.40;0.40;;;;;;;17.47;48.60;96792.00;29395;214;63009;-52
2023/06/17 00:36:08;;;;;;;0.40;0.40;;;;;;;17.47;49.06;96797.47;29395;218;63004;-57
2023/06/17 00:36:40;;;;;;;0.30;0.30;;;;;;;17.47;48.83;96802.97;29395;247;63009;-61
2023/06/17 00:37:11;;;;;;;0.40;0.40;;;;;;;17.48;48.80;96796.34;29395;218;63004;-51
2023/06/17 00:37:42;;;;;;;0.40;0.40;;;;;;;17.48;48.83;96796.34;29394;331;64013;-58
2023/06/17 00:38:13;;;;;;;0.40;0.40;;;;;;;17.47;48.63;96800.22;29395;218;63004;-52
2023/06/17 00:38:45;;;;;;;0.30;0.30;;;;;;;17.47;48.69;96792.00;29395;210;63009;-51
2023/06/17 00:39:19;;;;;;;0.40;0.40;;;;;;;17.47;48.79;96795.53;29395;209;63005;-51
2023/06/17 00:39:55;;;;;;;0.40;0.40;;;;;;;17.47;48.87;96792.00;29395;303;63009;-58
2023/06/17 00:40:27;;;;;;;0.40;0.40;;;;;;;17.47;48.88;96794.72;29395;222;63005;-50
2023/06/17 00:40:58;;;;;;;0.30;0.30;;;;;;;17.47;48.81;96794.72;29394;269;64027;-52
2023/06/17 00:41:29;;;;;;;0.40;0.40;;;;;;;17.48;48.77;96790.84;29395;197;63005;-52
2023/06/17 00:42:01;;;;;;;0.30;0.30;;;;;;;17.48;48.70;96796.34;29395;246;63009;-58
2023/06/17 00:42:36;;;;;;;0.40;0.40;;;;;;;17.48;48.64;96796.34;29395;222;63005;-58
2023/06/17 00:43:08;;;;;;;0.40;0.40;;;;;;;17.48;48.51;96793.59;29395;246;63017;-52
2023/06/17 00:43:40;;;;;;;0.30;0.30;;;;;;;17.48;48.43;96790.84;29395;240;63004;-58
2023/06/17 00:44:11;;;;;;;0.40;0.40;;;;;;;17.47;48.72;96789.25;29395;236;63009;-50
2023/06/17 00:44:42;;;;;;;0.30;0.30;;;;;;;17.46;48.78;96793.94;29395;209;63004;-51
2023/06/17 00:45:14;;;;;;;0.40;0.40;;;;;;;17.45;48.62;96786.03;29395;202;63009;-59
2023/06/17 00:45:46;;;;;;;0.40;0.40;;;;;;;17.45;48.55;96792.31;29394;212;64008;-58
2023/06/17 00:46:38;;;;;;;0.30;0.30;;;;;;;17.43;48.55;96787.19;29395;215;63009;-50
2023/06/17 00:47:11;;;;;;;0.40;0.40;;;;;;;17.41;48.90;96792.19;29395;215;63005;-56
2023/06/17 00:47:43;;;;;;;0.40;0.40;;;;;;;17.42;48.97;96788.31;29395;255;63009;-51
2023/06/17 00:48:15;;;;;;;0.40;0.40;;;;;;;17.43;48.85;96789.91;29394;252;64009;-59
2023/06/17 00:48:46;;;;;;;0.40;0.40;;;;;;;17.43;48.68;96780.88;29395;286;63009;-58
2023/06/17 00:49:18;;;;;;;0.40;0.40;;;;;;;17.43;48.45;96789.12;29395;266;63005;-52
2023/06/17 00:49:53;;;;;;;0.40;0.40;;;;;;;17.43;48.63;96787.19;29395;215;63009;-52
2023/06/17 00:50:28;;;;;;;0.68;0.68;;;;;;;17.44;48.75;96785.22;29395;276;63005;-51
2023/06/17 00:51:02;;;;;;;0.40;0.40;;;;;;;17.43;48.69;96784.44;29395;198;63026;-51
2023/06/17 00:51:33;;;;;;;0.40;0.40;;;;;;;17.43;48.24;96778.94;29395;264;63000;-57
2023/06/17 00:52:07;;;;;;;0.40;0.40;;;;;;;17.42;48.42;96782.03;29395;208;63009;-50
2023/06/17 00:52:41;;;;;;;0.30;0.30;;;;;;;17.44;48.32;96790.72;29395;239;63010;-58
2023/06/17 00:53:12;;;;;;;0.40;0.40;;;;;;;17.45;48.35;96780.56;29395;244;63018;-51
2023/06/17 00:53:44;;;;;;;0.40;0.40;;;;;;;17.46;48.17;96787.63;29394;211;64008;-51
2023/06/17 00:54:15;;;;;;;0.40;0.40;;;;;;;17.45;48.15;96791.53;29395;202;63009;-51
2023/06/17 00:54:47;;;;;;;0.40;0.40;;;;;;;17.46;48.12;96784.91;29395;271;63005;-51
2023/06/17 00:55:19;;;;;;;0.40;0.40;;;;;;;17.46;48.05;96782.16;29395;208;63009;-51
2023/06/17 00:55:50;;;;;;;0.40;0.40;;;;;;;17.45;48.14;96780.56;29395;218;63005;-51
2023/06/17 00:56:25;;;;;;;0.37;0.37;;;;;;;17.45;48.11;96788.78;29395;248;63009;-51
2023/06/17 00:56:57;;;;;;;0.40;0.40;;;;;;;17.45;48.33;96786.03;29395;257;63005;-53
2023/06/17 00:57:29;;;;;;;0.37;0.37;;;;;;;17.43;48.14;96784.44;29395;222;63009;-51
2023/06/17 00:58:01;;;;;;;0.40;0.40;;;;;;;17.40;48.78;96790.59;29395;372;63004;-50
2023/06/17 00:58:33;;;;;;;0.40;0.40;;;;;;;17.39;48.64;96789.00;29394;210;64013;-51
2023/06/17 00:59:05;;;;;;;0.40;0.40;;;;;;;17.38;48.79;96787.38;29395;208;63004;-51
2023/06/17 00:59:38;;;;;;;0.40;0.40;;;;;;;17.38;48.58;96790.13;29395;203;63009;-51
2023/06/17 01:00:10;;;;;;;0.40;0.40;;;;;;;17.39;48.41;96791.72;29395;266;63004;-51
2023/06/17 01:00:42;;;;;;;0.40;0.40;;;;;;;17.39;48.64;96788.19;29394;228;64013;-51
2023/06/17 01:01:13;;;;;;;0.40;0.40;;;;;;;17.38;48.30;96779.16;29395;247;63004;-51
2023/06/17 01:01:44;;;;;;;0.40;0.40;;;;;;;17.38;48.51;96792.87;29395;303;63009;-51
2023/06/17 01:02:17;;;;;;;0.40;0.40;;;;;;;17.38;48.45;96790.13;29395;216;63007;-51
2023/06/17 01:02:48;;;;;;;0.40;0.40;;;;;;;17.37;48.53;96795.94;29395;233;63009;-51
2023/06/17 01:03:22;;;;;;;0.40;0.40;;;;;;;17.37;48.66;96790.47;29394;245;64009;-50
2023/06/17 01:03:54;;;;;;;0.40;0.40;;;;;;;17.36;48.95;96792.41;29395;282;63009;-51
2023/06/17 01:04:28;;;;;;;0.40;0.40;;;;;;;17.36;48.86;96792.41;29395;231;63005;-51
2023/06/17 01:05:04;;;;;;;0.40;0.40;;;;;;;17.36;49.00;96789.66;29395;196;63009;-58
2023/06/17 01:05:38;;;;;;;0.40;0.40;;;;;;;17.35;48.92;96799.03;29395;215;63004;-50
2023/06/17 01:06:17;;;;;;;0.40;0.40;;;;;;;17.34;48.87;96786.47;29394;316;64013;-51
2023/06/17 01:07:04;;;;;;;0.40;0.40;;;;;;;17.33;49.18;96790.34;29395;226;63004;-51
2023/06/17 01:07:57;;;;;;;0.40;0.40;;;;;;;17.36;49.05;96788.88;29395;213;63008;-51
2023/06/17 01:08:40;;;;;;;0.50;0.50;;;;;;;17.34;49.06;96791.94;29394;230;64009;-51
2023/06/17 01:09:18;;;;;;;0.40;0.40;;;;;;;17.34;49.14;96785.66;29395;210;63009;-51
2023/06/17 01:10:05;;;;;;;0.40;0.40;;;;;;;17.34;49.08;96785.66;29395;209;63005;-51
2023/06/17 01:11:27;;;;;;;0.40;0.40;;;;;;;17.32;49.41;96787.97;29395;256;63009;-51
2023/06/17 01:11:59;;;;;;;0.40;0.40;;;;;;;17.30;49.28;96790.25;29417;221;63005;-53
2023/06/17 01:12:32;;;;;;;0.40;0.40;;;;;;;17.30;48.88;96782.81;29395;221;63009;-51
2023/06/17 01:13:05;;;;;;;0.50;0.50;;;;;;;17.29;48.65;96783.97;29395;198;63004;-52
2023/06/17 01:13:40;;;;;;;0.40;0.40;;;;;;;17.30;48.80;96791.03;29394;228;64013;-52
2023/06/17 01:14:14;;;;;;;0.40;0.40;;;;;;;17.30;48.48;96785.56;29395;223;63004;-52
2023/06/17 01:14:50;;;;;;;0.40;0.40;;;;;;;17.30;48.60;96785.56;29395;223;63004;-52
2023/06/17 01:15:23;;;;;;;0.40;0.40;;;;;;;17.30;48.64;96785.56;29395;213;63004;-51
2023/06/17 01:15:56;;;;;;;0.40;0.40;;;;;;;17.29;48.39;96789.44;29394;224;64014;-51
2023/06/17 01:16:33;;;;;;;0.40;0.40;;;;;;;17.30;48.78;96785.56;29395;223;63005;-50
2023/06/17 01:17:10;;;;;;;0.40;0.40;;;;;;;17.30;48.41;96784.75;29395;257;63009;-51
2023/06/17 01:17:44;;;;;;;0.40;0.40;;;;;;;17.29;48.42;96778.47;29395;219;63005;-51
2023/06/17 01:18:20;;;;;;;0.40;0.40;;;;;;;17.29;48.64;96781.22;29395;222;63009;-50
2023/06/17 01:18:53;;;;;;;0.40;0.40;;;;;;;17.30;48.39;96785.56;29394;260;64009;-50
2023/06/17 01:19:25;;;;;;;0.40;0.40;;;;;;;17.30;49.06;96784.75;29395;294;63009;-50
2023/06/17 01:19:57;;;;;;;0.40;0.40;;;;;;;17.28;48.82;96782.34;29394;252;64009;-51
2023/06/17 01:20:28;;;;;;;0.40;0.40;;;;;;;17.29;48.79;96783.16;29395;242;63009;-51
2023/06/17 01:21:03;;;;;;;0.40;0.40;;;;;;;17.28;48.92;96787.84;29395;228;63000;-51
2023/06/17 01:21:37;;;;;;;0.40;0.40;;;;;;;17.27;48.66;96780.75;29395;202;63015;-51
2023/06/17 01:22:13;;;;;;;0.40;0.40;;;;;;;17.28;48.45;96781.56;29395;225;63004;-52
2023/06/17 01:22:46;;;;;;;0.40;0.40;;;;;;;17.30;48.64;96785.56;29395;210;63016;-51
2023/06/17 01:23:18;;;;;;;0.40;0.40;;;;;;;17.29;48.70;96783.97;29395;245;63005;-51
2023/06/17 01:23:53;;;;;;;0.40;0.40;;;;;;;17.28;48.70;96787.84;29395;244;63009;-51
2023/06/17 01:24:29;;;;;;;0.40;0.40;;;;;;;17.27;49.08;96783.50;29395;212;63005;-51
2023/06/17 01:25:02;;;;;;;0.40;0.40;;;;;;;17.26;49.03;96784.63;29394;202;64013;-51
2023/06/17 01:25:35;;;;;;;0.40;0.40;;;;;;;17.25;48.82;96782.22;29395;203;63009;-51
2023/06/17 01:26:07;;;;;;;0.40;0.40;;;;;;;17.25;49.12;96784.97;29395;215;63009;-51
2023/06/17 01:26:39;;;;;;;0.40;0.40;;;;;;;17.25;49.05;96782.22;29395;222;63012;-51
2023/06/17 01:27:11;;;;;;;0.35;0.35;;;;;;;17.26;48.83;96784.63;29395;203;63009;-50
2023/06/17 01:27:43;;;;;;;0.40;0.40;;;;;;;17.27;48.51;96786.25;29395;258;63004;-51
2023/06/17 01:28:17;;;;;;;0.40;0.40;;;;;;;17.28;48.70;96781.56;29395;208;63009;-52
2023/06/17 01:28:49;;;;;;;0.40;0.40;;;;;;;17.27;48.72;96786.25;29395;203;63004;-53
2023/06/17 01:29:20;;;;;;;0.40;0.40;;;;;;;17.27;48.60;96788.19;29395;215;63009;-51
2023/06/17 01:29:53;;;;;;;0.40;0.40;;;;;;;17.27;49.08;96788.97;29394;235;64009;-51
2023/06/17 01:30:28;;;;;;;0.43;0.43;;;;;;;17.28;48.89;96787.84;29395;199;63008;-51
2023/06/17 01:31:00;;;;;;;0.40;0.40;;;;;;;17.28;48.46;96785.09;29395;231;63005;-51
2023/06/17 01:31:32;;;;;;;0.40;0.40;;;;;;;17.29;48.73;96791.38;29394;247;64014;-51
2023/06/17 01:32:06;;;;;;;0.50;0.50;;;;;;;17.28;48.72;96787.84;29395;224;63005;-51
2023/06/17 01:32:37;;;;;;;0.40;0.40;;;;;;;17.28;48.67;96781.56;29395;210;63013;-51
2023/06/17 01:33:09;;;;;;;0.40;0.40;;;;;;;17.28;48.41;96787.84;29395;202;63005;-51
2023/06/17 01:33:43;;;;;;;0.40;0.40;;;;;;;17.29;48.66;96778.47;29395;227;63005;-52
2023/06/17 01:34:17;;;;;;;0.40;0.40;;;;;;;17.29;48.55;96780.41;29395;272;63005;-51
2023/06/17 01:35:05;;;;;;;0.40;0.40;;;;;;;17.29;48.17;96781.22;29394;237;64011;-51
2023/06/17 01:35:40;;;;;;;0.40;0.40;;;;;;;17.30;48.48;96784.75;29395;224;63004;-52
2023/06/17 01:36:21;;;;;;;0.40;0.40;;;;;;;17.29;48.18;96783.16;29395;275;63009;-52
2023/06/17 01:36:55;;;;;;;0.40;0.40;;;;;;;17.27;48.67;96778.00;29416;218;64009;-51
2023/06/17 01:37:48;;;;;;;0.40;0.40;;;;;;;17.26;48.21;96779.16;29395;264;63008;-53
2023/06/17 01:38:34;;;;;;;0.40;0.40;;;;;;;17.26;48.64;96783.84;29417;197;63005;-51
2023/06/17 01:39:08;;;;;;;0.50;0.50;;;;;;;17.25;48.39;96776.75;29395;205;63009;-51
2023/06/17 01:39:42;;;;;;;0.40;0.40;;;;;;;17.26;48.33;96778.34;29395;208;63005;-51
2023/06/17 01:40:18;;;;;;;0.40;0.40;;;;;;;17.27;48.42;96774.47;29395;230;63009;-50
2023/06/17 01:40:58;;;;;;;0.40;0.40;;;;;;;17.27;48.37;96782.69;29395;214;63005;-51
2023/06/17 01:41:36;;;;;;;0.40;0.40;;;;;;;17.26;48.42;96779.16;29394;202;64013;-51
2023/06/17 01:42:15;;;;;;;0.40;0.40;;;;;;;17.27;48.72;96785.44;29394;267;64009;-51
2023/06/17 01:42:50;;;;;;;0.40;0.40;;;;;;;17.27;48.56;96785.44;29395;204;63009;-51
2023/06/17 01:43:22;;;;;;;0.40;0.40;;;;;;;17.26;48.56;96776.41;29395;212;63004;-51
2023/06/17 01:43:56;;;;;;;0.40;0.40;;;;;;;17.26;48.43;96779.16;29395;210;63009;-51
2023/06/17 01:44:30;;;;;;;0.40;0.40;;;;;;;17.27;48.72;96786.25;29394;243;64009;-52
2023/06/17 01:45:07;;;;;;;0.40;0.40;;;;;;;17.25;48.60;96780.28;29395;208;63012;-53
2023/06/17 01:45:41;;;;;;;0.40;0.40;;;;;;;17.25;48.96;96785.78;29395;232;63004;-51
2023/06/17 01:46:13;;;;;;;0.40;0.40;;;;;;;17.25;48.96;96780.28;29395;218;63018;-51
2023/06/17 01:46:45;;;;;;;0.40;0.40;;;;;;;17.24;48.71;96784.16;29395;229;63005;-51
2023/06/17 01:47:16;;;;;;;0.40;0.40;;;;;;;17.23;48.55;96779.81;29395;218;63009;-51
2023/06/17 01:47:48;;;;;;;0.40;0.40;;;;;;;17.22;48.99;96780.97;29395;245;63005;-51
2023/06/17 01:48:19;;;;;;;0.40;0.40;;;;;;;17.23;48.93;96787.25;29395;250;63009;-51
2023/06/17 01:48:54;;;;;;;0.40;0.40;;;;;;;17.21;48.91;96782.09;29395;203;63008;-51
2023/06/17 01:49:25;;;;;;;0.40;0.40;;;;;;;17.19;48.85;96781.62;29394;255;64013;-51
2023/06/17 01:50:03;;;;;;;0.40;0.40;;;;;;;17.20;49.14;96783.25;29395;198;63005;-51
2023/06/17 01:50:35;;;;;;;0.40;0.40;;;;;;;17.18;48.86;96780.03;29395;212;63009;-51
2023/06/17 01:51:06;;;;;;;0.40;0.40;;;;;;;17.17;49.18;96788.59;29395;220;63004;-51
2023/06/17 01:51:38;;;;;;;0.40;0.40;;;;;;;17.14;49.25;96781.84;29395;213;63009;-51
2023/06/17 01:52:11;;;;;;;0.40;0.40;;;;;;;17.13;48.97;96785.72;29394;243;64009;-52
2023/06/17 01:52:42;;;;;;;0.50;0.50;;;;;;;17.12;48.96;96778.63;29395;202;63008;-51
2023/06/17 01:53:14;;;;;;;0.40;0.40;;;;;;;17.12;49.63;96792.34;29395;227;63000;-51
2023/06/17 01:53:46;;;;;;;0.40;0.40;;;;;;;17.09;49.29;96788.34;29395;197;63009;-59
2023/06/17 01:54:18;;;;;;;0.50;0.50;;;;;;;17.10;49.42;96786.41;29395;225;63005;-51
2023/06/17 01:54:50;;;;;;;0.40;0.40;;;;;;;17.08;49.30;96788.66;29395;203;63009;-51
2023/06/17 01:55:21;;;;;;;0.40;0.40;;;;;;;17.07;49.26;96787.06;29395;228;63005;-52
2023/06/17 01:55:53;;;;;;;0.50;0.50;;;;;;;17.07;49.09;96784.31;29395;247;63009;-51
2023/06/17 01:56:25;;;;;;;0.40;0.40;;;;;;;17.07;49.38;96787.06;29395;197;63005;-51
2023/06/17 01:56:57;;;;;;;0.32;0.32;;;;;;;17.07;49.09;96781.59;29395;203;63009;-52
2023/06/17 01:57:28;;;;;;;0.40;0.40;;;;;;;17.06;49.22;96779.97;29394;225;64009;-52
2023/06/17 01:57:59;;;;;;;0.40;0.40;;;;;;;17.06;49.14;96780.78;29395;247;63021;-52
2023/06/17 01:58:31;;;;;;;0.40;0.40;;;;;;;17.05;48.98;96787.41;29395;202;63004;-51
2023/06/17 01:59:02;;;;;;;0.40;0.40;;;;;;;17.05;49.16;96784.66;29395;225;63009;-51
2023/06/17 01:59:33;;;;;;;0.40;0.40;;;;;;;17.06;49.10;96782.72;29395;215;63004;-51
2023/06/17 02:00:07;;;;;;;0.40;0.40;;;;;;;17.05;48.82;96776.44;29395;220;63009;-52
2023/06/17 02:00:38;;;;;;;0.40;0.40;;;;;;;17.06;49.05;96782.72;29395;231;63014;-51
2023/06/17 02:01:09;;;;;;;0.40;0.40;;;;;;;17.06;48.67;96782.72;29395;252;63009;-51
2023/06/17 02:01:41;;;;;;;0.40;0.40;;;;;;;17.06;49.01;96777.25;29394;253;64009;-52
2023/06/17 02:02:12;;;;;;;0.40;0.40;;;;;;;17.06;48.97;96774.50;29395;251;63017;-52
2023/06/17 02:02:48;;;;;;;0.40;0.40;;;;;;;17.06;48.95;96777.25;29395;244;63012;-57
2023/06/17 02:03:22;;;;;;;0.40;0.40;;;;;;;17.04;48.97;96776.78;29395;206;63009;-52
2023/06/17 02:03:53;;;;;;;0.40;0.40;;;;;;;17.07;48.86;96781.59;29395;216;63005;-51
2023/06/17 02:04:25;;;;;;;0.40;0.40;;;;;;;17.06;48.94;96790.94;29395;246;63009;-51
2023/06/17 02:04:59;;;;;;;0.40;0.40;;;;;;;17.05;49.09;96779.19;29395;206;63004;-51
2023/06/17 02:05:32;;;;;;;0.40;0.40;;;;;;;17.05;49.01;96779.19;29394;196;64013;-51
2023/06/17 02:06:04;;;;;;;0.40;0.40;;;;;;;17.06;49.09;96779.97;29395;235;63004;-51
2023/06/17 02:06:37;;;;;;;0.40;0.40;;;;;;;17.05;49.21;96778.38;29395;213;63009;-52
2023/06/17 02:07:10;;;;;;;0.40;0.40;;;;;;;17.03;49.20;96777.91;29395;199;63004;-51
2023/06/17 02:07:42;;;;;;;0.40;0.40;;;;;;;16.98;49.69;96778.91;29395;227;63008;-52
2023/06/17 02:08:17;;;;;;;0.40;0.40;;;;;;;16.98;49.40;96773.44;29395;270;63004;-52
2023/06/17 02:08:49;;;;;;;0.40;0.40;;;;;;;16.97;50.34;96784.75;29395;209;63009;-50
2023/06/17 02:09:20;;;;;;;0.40;0.40;;;;;;;16.93;50.14;96789.31;29395;245;63005;-52
2023/06/17 02:09:52;;;;;;;0.40;0.40;;;;;;;16.93;50.02;96781.88;29395;219;63016;-52
2023/06/17 02:10:24;;;;;;;0.40;0.40;;;;;;;16.93;50.10;96783.84;29394;231;64009;-52
2023/06/17 02:10:55;;;;;;;0.40;0.40;;;;;;;16.90;50.58;96782.56;29395;245;63009;-51
2023/06/17 02:11:27;;;;;;;0.40;0.40;;;;;;;16.87;50.76;96783.22;29395;231;63005;-52
2023/06/17 02:11:58;;;;;;;0.40;0.40;;;;;;;16.85;50.38;96784.69;29395;212;63009;-52
2023/06/17 02:12:30;;;;;;;0.37;0.37;;;;;;;16.84;50.17;96788.56;29395;204;63004;-52
2023/06/17 02:13:03;;;;;;;0.40;0.40;;;;;;;16.84;50.39;96788.56;29395;266;63009;-52
2023/06/17 02:13:34;;;;;;;0.40;0.40;;;;;;;16.83;50.36;96786.97;29395;202;63000;-51
2023/06/17 02:14:06;;;;;;;0.40;0.40;;;;;;;16.80;51.37;96788.44;29394;277;64013;-51
2023/06/17 02:14:38;;;;;;;0.40;0.40;;;;;;;16.79;50.65;96792.31;29395;269;63004;-52
2023/06/17 02:15:11;;;;;;;0.40;0.40;;;;;;;16.79;50.66;96794.25;29395;199;63008;-51
2023/06/17 02:15:42;;;;;;;0.40;0.40;;;;;;;16.78;50.40;96789.91;29395;230;63005;-51
2023/06/17 02:16:14;;;;;;;0.40;0.40;;;;;;;16.76;50.28;96776.53;29395;246;63009;-51
2023/06/17 02:16:49;;;;;;;0.40;0.40;;;;;;;16.73;50.78;96788.97;29395;221;63005;-51
2023/06/17 02:17:20;;;;;;;0.50;0.50;;;;;;;16.70;52.02;96784.16;29395;240;63009;-51
2023/06/17 02:17:51;;;;;;;0.93;0.93;;;;;;;16.67;50.83;96787.56;29395;222;63005;-51
2023/06/17 02:18:24;;;;;;;0.40;0.40;;;;;;;16.65;51.20;96789.84;29395;221;63009;-51
2023/06/17 02:18:55;;;;;;;0.50;0.50;;;;;;;16.65;50.89;96787.09;29395;232;63005;-51
2023/06/17 02:19:31;;;;;;;0.50;0.50;;;;;;;16.65;50.90;96780.81;29394;234;64013;-57
2023/06/17 02:20:06;;;;;;;0.50;0.50;;;;;;;16.64;50.69;96784.69;29395;196;63004;-52
2023/06/17 02:20:37;;;;;;;0.40;0.40;;;;;;;16.61;51.30;96786.16;29395;221;63009;-51
2023/06/17 02:21:08;;;;;;;0.40;0.40;;;;;;;16.60;50.89;96784.56;29395;207;63004;-51
2023/06/17 02:21:39;;;;;;;0.40;0.40;;;;;;;16.59;51.08;96782.94;29395;209;63009;-51
2023/06/17 02:22:10;;;;;;;0.40;0.40;;;;;;;16.59;50.88;96779.41;29395;215;63004;-52
2023/06/17 02:22:42;;;;;;;0.40;0.40;;;;;;;16.56;51.62;96789.09;29395;206;63008;-52
2023/06/17 02:23:13;;;;;;;0.40;0.40;;;;;;;16.55;51.59;96787.50;29395;213;63005;-52
2023/06/17 02:23:48;;;;;;;0.40;0.40;;;;;;;16.54;51.64;96782.34;29395;256;63009;-52
2023/06/17 02:24:21;;;;;;;0.40;0.40;;;;;;;16.53;51.16;96784.28;29395;237;63005;-51
2023/06/17 02:24:55;;;;;;;0.40;0.40;;;;;;;16.54;51.31;96780.41;29394;253;64013;-52
2023/06/17 02:25:28;;;;;;;0.40;0.40;;;;;;;16.55;50.93;96781.22;29395;210;63005;-52
2023/06/17 02:25:59;;;;;;;0.40;0.40;;;;;;;16.55;51.23;96776.53;29395;239;63009;-52
2023/06/17 02:26:34;;;;;;;0.40;0.40;;;;;;;16.55;51.00;96775.72;29395;215;63005;-52
2023/06/17 02:27:06;;;;;;;0.40;0.40;;;;;;;16.54;51.14;96785.09;29395;229;63009;-52
2023/06/17 02:27:38;;;;;;;0.40;0.40;;;;;;;16.53;51.60;96778.00;29395;214;63000;-52
2023/06/17 02:28:09;;;;;;;0.40;0.40;;;;;;;16.52;51.74;96777.19;29395;288;63009;-52
2023/06/17 02:28:42;;;;;;;0.40;0.40;;;;;;;16.51;51.21;96775.59;29395;254;63004;-52
2023/06/17 02:29:13;;;;;;;0.40;0.40;;;;;;;16.51;51.29;96775.59;29395;227;63004;-52
2023/06/17 02:29:45;;;;;;;0.70;0.70;;;;;;;16.49;51.76;96771.59;29395;200;63004;-52
2023/06/17 02:30:16;;;;;;;0.40;0.40;;;;;;;16.44;51.79;96772.59;29394;241;64013;-54
2023/06/17 02:30:47;;;;;;;0.40;0.40;;;;;;;16.42;51.76;96772.91;29395;216;63005;-52
2023/06/17 02:31:21;;;;;;;0.40;0.40;;;;;;;16.41;52.99;96781.47;29395;200;63009;-52
2023/06/17 02:31:53;;;;;;;0.40;0.40;;;;;;;16.38;52.94;96771.16;29395;369;63005;-53
2023/06/17 02:32:27;;;;;;;0.40;0.40;;;;;;;16.37;52.45;96772.31;29395;220;63009;-53
2023/06/17 02:33:03;;;;;;;0.40;0.40;;;;;;;16.38;51.83;96768.44;29395;209;63005;-52
2023/06/17 02:33:34;;;;;;;0.40;0.40;;;;;;;16.37;52.83;96772.31;29395;207;63009;-52
2023/06/17 02:34:05;;;;;;;0.40;0.40;;;;;;;16.35;52.55;96771.84;29395;229;63005;-52
2023/06/17 02:34:37;;;;;;;0.40;0.40;;;;;;;16.34;52.55;96770.22;29395;197;63014;-53
2023/06/17 02:35:10;;;;;;;0.40;0.40;;;;;;;16.33;52.18;96768.63;29395;202;63004;-52
2023/06/17 02:35:41;;;;;;;0.40;0.40;;;;;;;16.33;52.51;96769.44;29394;209;64013;-52
2023/06/17 02:36:14;;;;;;;0.40;0.40;;;;;;;16.33;52.50;96774.91;29394;202;64009;-53
2023/06/17 02:36:46;;;;;;;0.40;0.40;;;;;;;16.32;52.45;96767.03;29395;213;63014;-52
2023/06/17 02:37:17;;;;;;;0.40;0.40;;;;;;;16.32;52.14;96769.75;29395;208;63000;-52
2023/06/17 02:37:49;;;;;;;0.40;0.40;;;;;;;16.31;52.13;96765.41;29395;277;63008;-52
2023/06/17 02:38:24;;;;;;;0.40;0.40;;;;;;;16.31;52.14;96763.47;29395;238;63005;-52
2023/06/17 02:38:59;;;;;;;0.40;0.40;;;;;;;16.30;52.35;96767.34;29395;245;63020;-52